< < Back
Terminal Aerodrome Forecast


Current Version              Previous Versions:   1  2  3  4  5  6  7  8  9  

Terminal Aerodrome Forecast

653
FTUS42 KFFC 191700
TAFPDK
TAF
KPDK 191720Z 1918/2018 04012G25KT P6SM OVC025
      TEMPO 1918/1922 5SM -DZ
     FM200200 04010KT P6SM OVC025
     FM201500 06010KT P6SM SCT030 BKN060=

Latest METAR

574
SAUS70 KWBC 191700 RRD
MTRPDK
METAR KPDK 191653Z 06009G19KT 10SM OVC022 16/11 A3010 RMK AO2 SLP190
T01610106


USA.gov is the U.S. government's official web portal to all federal, state and local government web resources and services.